8°C Temp
6°C Dewpoint
87% Humidity
Temperature
11 KM/H
7 MPH
6 KTS
100°
Due East

Wind Speed
Clear
Conditions
Pressure 1006.92 (hPa) - 29.73 (in)
Visibility 6.2 (mi) - 10.0 (km)

Current Conditions
ESMS
Location 25(km)
Metar :ESMS 300020Z 10006KT CAVOK 08/06 Q1007
Fri 30th September 02:20 am

Airport
  Metar Aviation API Data Provided by https://www.checkwx.com/ PHP scripts by weather34.com ©2022